Time;durP1;ratioP1;P1;durP2;ratioP2;P2;SDS_P1;SDS_P2;PMS_P1;PMS_P2;Temp;Humidity;BMP_temperature;BMP_pressure;BME280_temperature;BME280_humidity;BME280_pressure;Samples;Min_cycle;Max_cycle;Signal;HPM_P1;HPM_P2
2022/05/24 00:02:19;;;;;;;3.30;2.25;;;;;;;14.23;56.36;95799.10;1788166;80;21005;-84
2022/05/24 00:04:46;;;;;;;4.05;2.77;;;;;;;14.17;56.26;95803.91;1788491;80;21016;-84
2022/05/24 00:07:11;;;;;;;3.52;2.30;;;;;;;14.13;56.77;95802.21;1788803;80;20910;-84
2022/05/24 00:09:38;;;;;;;9.00;6.28;;;;;;;14.07;56.79;95801.28;1789074;80;21036;-84
2022/05/24 00:12:04;;;;;;;5.72;2.80;;;;;;;14.02;56.93;95806.36;1789145;80;20989;-84
2022/05/24 00:17:14;;;;;;;3.60;2.75;;;;;;;13.91;57.65;95800.55;1789196;80;21025;-84
2022/05/24 00:19:40;;;;;;;5.25;3.17;;;;;;;13.86;57.69;95799.60;1789345;80;20993;-84
2022/05/24 00:22:07;;;;;;;3.95;2.60;;;;;;;13.81;58.05;95791.09;1787713;80;21002;-84
2022/05/24 00:24:33;;;;;;;4.45;2.42;;;;;;;13.73;58.26;95793.99;1787865;80;21020;-84
2022/05/24 00:26:59;;;;;;;3.40;2.33;;;;;;;13.68;58.70;95792.03;1787861;80;21009;-84
2022/05/24 00:29:25;;;;;;;4.53;2.70;;;;;;;13.65;58.90;95796.87;1787771;80;20966;-84
2022/05/24 00:31:50;;;;;;;2.80;2.50;;;;;;;13.59;59.02;95792.00;1787840;80;21017;-84
2022/05/24 00:34:16;;;;;;;2.98;2.45;;;;;;;13.56;59.21;95791.13;1787845;80;21001;-83
2022/05/24 00:36:42;;;;;;;3.35;2.52;;;;;;;13.50;59.26;95790.19;1786714;80;21399;-83
2022/05/24 00:39:08;;;;;;;2.37;2.08;;;;;;;13.47;59.42;95791.90;1787922;80;21061;-83
2022/05/24 00:41:59;;;;;;;4.20;1.90;;;;;;;13.44;59.92;95789.72;1787792;80;21069;-83
2022/05/24 00:44:29;;;;;;;2.87;2.00;;;;;;;13.38;60.24;95791.89;1787983;80;21420;-83
2022/05/24 00:47:01;;;;;;;2.85;1.90;;;;;;;13.35;60.65;95789.71;1787783;80;20985;-83
2022/05/24 00:49:37;;;;;;;2.35;1.92;;;;;;;13.32;60.60;95784.89;1788003;80;21395;-84
2022/05/24 00:52:11;;;;;;;2.27;1.52;;;;;;;13.35;59.35;95778.48;1787632;80;21056;-83
2022/05/24 00:54:37;;;;;;;2.12;1.65;;;;;;;13.47;59.54;95772.83;1770662;80;20985;-83
2022/05/24 00:57:35;;;;;;;2.37;1.82;;;;;;;13.58;58.84;95762.20;1765451;80;21418;-83
2022/05/24 01:00:07;;;;;;;2.90;2.20;;;;;;;13.71;58.43;95762.09;1787773;80;21021;-83
2022/05/24 01:02:33;;;;;;;2.70;1.70;;;;;;;13.83;58.23;95762.97;1787592;80;21002;-83
2022/05/24 01:04:59;;;;;;;2.45;1.75;;;;;;;13.88;57.84;95756.59;1787657;80;21012;-83
2022/05/24 01:07:25;;;;;;;2.33;1.50;;;;;;;13.95;57.93;95750.77;1787735;80;21424;-83
2022/05/24 01:10:07;;;;;;;1.70;1.50;;;;;;;14.00;57.39;95751.44;1787768;80;21062;-83
2022/05/24 01:12:37;;;;;;;3.08;1.67;;;;;;;14.05;57.35;95742.44;1787581;80;21043;-83
2022/05/24 01:15:05;;;;;;;3.25;1.52;;;;;;;14.08;57.29;95751.13;1787778;80;21427;-83
2022/05/24 01:17:31;;;;;;;2.35;1.70;;;;;;;14.10;56.79;95746.48;1787840;80;21002;-83
2022/05/24 01:19:57;;;;;;;2.35;1.75;;;;;;;14.13;56.67;95746.84;1787687;80;21021;-83
2022/05/24 01:22:57;;;;;;;2.25;1.80;;;;;;;14.18;56.43;95738.88;1740805;80;21061;-83
2022/05/24 01:26:09;;;;;;;2.98;1.50;;;;;;;14.22;56.32;95743.95;1787519;80;21013;-84
2022/05/24 01:28:53;;;;;;;2.40;2.00;;;;;;;14.24;56.77;95744.52;1788219;80;20977;-83
2022/05/24 01:31:20;;;;;;;1.92;1.72;;;;;;;14.22;57.28;95746.56;1787847;80;21018;-83
2022/05/24 01:36:35;;;;;;;3.80;2.00;;;;;;;14.13;57.82;95735.59;1787985;80;21037;-83
2022/05/24 01:39:05;;;;;;;2.45;2.05;;;;;;;14.08;57.99;95740.17;1787677;80;21013;-83
2022/05/24 01:41:41;;;;;;;3.42;2.40;;;;;;;14.04;57.91;95735.62;1787942;80;21006;-83
2022/05/24 01:44:07;;;;;;;5.20;3.08;;;;;;;14.01;58.09;95725.61;1787940;80;21032;-83
2022/05/24 01:46:43;;;;;;;4.00;2.90;;;;;;;13.93;58.10;95719.36;1765978;80;21024;-83
2022/05/24 01:49:15;;;;;;;6.08;2.92;;;;;;;13.89;58.41;95712.98;1787796;80;21017;-84
2022/05/24 01:52:05;;;;;;;4.37;2.75;;;;;;;13.82;58.58;95713.84;1784315;80;21091;-83
2022/05/24 01:54:35;;;;;;;4.50;2.70;;;;;;;13.78;58.92;95711.38;1750179;80;21070;-83
2022/05/24 01:57:06;;;;;;;3.42;2.85;;;;;;;13.72;58.86;95708.85;1780373;80;21052;-83
2022/05/24 01:59:32;;;;;;;4.03;2.77;;;;;;;13.67;59.04;95701.68;1782809;80;21487;-83
2022/05/24 02:01:59;;;;;;;5.53;2.87;;;;;;;13.65;59.16;95706.80;1787957;80;21065;-83
2022/05/24 02:04:26;;;;;;;3.52;2.80;;;;;;;13.59;59.10;95699.34;1788141;80;20970;-84
2022/05/24 02:07:06;;;;;;;3.65;3.00;;;;;;;13.55;59.30;95694.27;1764606;80;20989;-83
2022/05/24 02:09:33;;;;;;;5.12;3.45;;;;;;;13.53;59.68;95692.90;1766156;80;21136;-83
2022/05/24 02:12:03;;;;;;;5.62;3.40;;;;;;;13.47;59.76;95697.14;1787943;80;21052;-82
2022/05/24 02:14:33;;;;;;;3.55;2.90;;;;;;;13.40;59.78;95693.82;1787967;80;21052;-83
2022/05/24 02:17:06;;;;;;;4.45;3.12;;;;;;;13.35;59.61;95705.42;1787808;80;20995;-83
2022/05/24 02:19:33;;;;;;;5.12;2.87;;;;;;;13.33;60.41;95702.20;1767233;80;21093;-83
2022/05/24 02:22:02;;;;;;;4.17;2.80;;;;;;;13.31;60.70;95704.23;1787736;80;21113;-84
2022/05/24 02:24:28;;;;;;;3.17;2.70;;;;;;;13.27;60.82;95703.07;1787888;80;21001;-83
2022/05/24 02:26:53;;;;;;;4.00;3.20;;;;;;;13.23;60.64;95704.01;1787850;80;20966;-83
2022/05/24 02:29:21;;;;;;;5.03;3.35;;;;;;;13.20;60.84;95705.24;1787690;80;21344;-83
2022/05/24 02:31:47;;;;;;;4.17;3.10;;;;;;;13.19;61.12;95701.03;1787613;80;20998;-83
2022/05/24 02:34:13;;;;;;;3.92;3.17;;;;;;;13.15;61.29;95703.73;1787922;80;21395;-83
2022/05/24 02:36:39;;;;;;;4.00;3.20;;;;;;;13.10;61.53;95700.97;1787827;80;21049;-83
2022/05/24 02:39:05;;;;;;;3.65;3.30;;;;;;;13.05;61.75;95702.13;1788059;80;21021;-83
2022/05/24 02:41:32;;;;;;;4.00;2.83;;;;;;;13.05;62.06;95697.42;1787778;80;21464;-85
2022/05/24 02:44:04;;;;;;;3.95;2.87;;;;;;;13.02;62.15;95693.94;1787798;80;21049;-86
2022/05/24 02:46:31;;;;;;;3.27;2.42;;;;;;;12.99;62.33;95694.34;1787645;80;20981;-85
2022/05/24 02:48:56;;;;;;;2.67;2.27;;;;;;;12.94;62.46;95689.77;1787746;80;21260;-86
2022/05/24 02:51:22;;;;;;;3.33;2.10;;;;;;;12.92;62.53;95687.89;1787870;80;21353;-86
2022/05/24 02:53:48;;;;;;;2.80;1.70;;;;;;;12.90;62.67;95686.00;1787795;80;21007;-86
2022/05/24 02:56:14;;;;;;;2.45;1.90;;;;;;;12.88;62.46;95686.72;1787863;80;21021;-85
2022/05/24 02:58:40;;;;;;;3.30;2.02;;;;;;;12.86;62.73;95686.14;1787652;80;20966;-85
2022/05/24 03:01:18;;;;;;;2.02;1.77;;;;;;;12.87;62.53;95682.02;1765608;80;20952;-86
2022/05/24 03:03:44;;;;;;;2.50;1.72;;;;;;;12.89;62.68;95681.80;1787702;80;21008;-86
2022/05/24 03:06:10;;;;;;;2.00;1.80;;;;;;;12.92;62.54;95669.63;1787696;80;21084;-85
2022/05/24 03:11:20;;;;;;;3.87;2.15;;;;;;;12.98;63.32;95675.80;1787483;80;21031;-85
2022/05/24 03:16:31;;;;;;;2.10;1.80;;;;;;;13.09;62.75;95668.59;1787798;80;21023;-86
2022/05/24 03:18:57;;;;;;;3.08;2.12;;;;;;;13.10;62.75;95659.23;1787798;80;20962;-85
2022/05/24 03:21:22;;;;;;;3.77;2.27;;;;;;;13.13;62.55;95669.23;1787920;80;22233;-86
2022/05/24 03:23:49;;;;;;;4.35;2.22;;;;;;;13.16;62.59;95668.01;1794450;80;21039;-85
2022/05/24 03:26:14;;;;;;;3.83;2.15;;;;;;;13.18;62.59;95664.73;1794751;80;21386;-85
2022/05/24 03:28:42;;;;;;;2.35;2.15;;;;;;;13.20;63.40;95669.23;1762287;80;21071;-85
2022/05/24 03:31:08;;;;;;;2.30;2.00;;;;;;;13.21;63.17;95670.82;1757434;81;21033;-85
2022/05/24 03:33:34;;;;;;;2.10;1.90;;;;;;;13.21;63.47;95667.70;1769346;80;21059;-82
2022/05/24 03:36:01;;;;;;;2.27;2.00;;;;;;;13.23;63.21;95670.61;1788806;80;21076;-83
2022/05/24 03:38:28;;;;;;;3.80;2.35;;;;;;;13.27;63.21;95675.67;1789042;80;21358;-83
2022/05/24 03:40:55;;;;;;;4.15;2.70;;;;;;;13.30;62.67;95681.25;1789021;80;21035;-83
2022/05/24 03:43:21;;;;;;;3.05;2.65;;;;;;;13.39;62.46;95676.56;1788572;80;21096;-82
2022/05/24 03:45:47;;;;;;;3.42;1.80;;;;;;;13.46;62.62;95670.25;1789280;80;21044;-83
2022/05/24 03:48:13;;;;;;;5.90;2.30;;;;;;;13.58;61.68;95670.34;1789189;79;21435;-83
2022/05/24 03:50:39;;;;;;;4.65;2.35;;;;;;;13.78;61.16;95676.12;1789404;80;21089;-83
2022/05/24 03:53:06;;;;;;;2.62;2.12;;;;;;;13.92;61.23;95681.20;1789123;80;21051;-84
2022/05/24 03:55:32;;;;;;;3.08;2.20;;;;;;;14.07;60.46;95679.80;1789291;80;21431;-83
2022/05/24 03:58:01;;;;;;;2.62;1.95;;;;;;;14.24;60.13;95685.22;1790147;80;20982;-83
2022/05/24 04:00:36;;;;;;;5.55;2.05;;;;;;;14.40;60.51;95694.25;1794599;80;22010;-83
2022/05/24 04:03:03;;;;;;;5.00;3.17;;;;;;;14.52;59.61;95679.45;1794665;80;21113;-83
2022/05/24 04:05:29;;;;;;;2.95;2.17;;;;;;;14.65;59.38;95686.31;1794607;80;21022;-82
2022/05/24 04:07:55;;;;;;;2.72;1.80;;;;;;;14.71;59.35;95678.86;1794605;80;20924;-83
2022/05/24 04:10:21;;;;;;;2.65;2.00;;;;;;;14.76;59.60;95673.75;1794710;80;20959;-83
2022/05/24 04:12:47;;;;;;;3.20;2.22;;;;;;;14.81;60.04;95672.59;1794932;80;20975;-83
2022/05/24 04:15:13;;;;;;;3.75;2.22;;;;;;;14.83;59.86;95684.92;1794702;80;20963;-83
2022/05/24 04:17:38;;;;;;;3.92;2.17;;;;;;;14.83;59.64;95682.81;1794890;80;21013;-83
2022/05/24 04:20:06;;;;;;;2.22;1.90;;;;;;;14.76;58.98;95669.03;1794472;80;21344;-83
2022/05/24 04:22:32;;;;;;;2.52;2.17;;;;;;;14.90;58.79;95685.60;1767550;80;21128;-83
2022/05/24 04:24:59;;;;;;;3.42;2.20;;;;;;;14.97;58.89;95693.36;1758080;80;21385;-83
2022/05/24 04:27:24;;;;;;;3.22;2.37;;;;;;;15.01;58.59;95686.66;1757949;80;21007;-83
2022/05/24 04:29:53;;;;;;;3.40;3.10;;;;;;;15.07;58.84;95683.63;1758282;80;21059;-83
2022/05/24 04:32:18;;;;;;;4.67;2.52;;;;;;;15.13;58.21;95677.00;1761995;80;20975;-83
2022/05/24 04:34:43;;;;;;;4.72;3.30;;;;;;;15.20;58.15;95670.33;1774534;80;21046;-83
2022/05/24 04:37:09;;;;;;;5.97;3.67;;;;;;;15.25;57.90;95675.16;1770395;79;20997;-83
2022/05/24 04:39:35;;;;;;;4.25;2.98;;;;;;;15.34;57.64;95681.38;1763933;80;20999;-83
2022/05/24 04:42:19;;;;;;;2.77;2.10;;;;;;;15.39;57.85;95683.58;1762301;80;20996;-84
2022/05/24 04:44:55;;;;;;;3.02;2.22;;;;;;;15.42;57.57;95688.36;1768763;80;21389;-83
2022/05/24 04:47:22;;;;;;;3.95;2.50;;;;;;;15.46;57.32;95696.58;1769339;80;20959;-83
2022/05/24 04:49:53;;;;;;;3.00;2.37;;;;;;;15.49;57.33;95690.88;1758703;80;21038;-83
2022/05/24 04:52:19;;;;;;;4.55;3.00;;;;;;;15.53;57.25;95694.11;1758871;80;21378;-83
2022/05/24 04:54:45;;;;;;;3.90;2.70;;;;;;;15.58;56.91;95698.13;1758881;80;20991;-83
2022/05/24 04:57:11;;;;;;;3.22;2.17;;;;;;;15.64;56.86;95702.22;1758122;80;20982;-83
2022/05/24 04:59:37;;;;;;;3.83;2.27;;;;;;;15.68;56.61;95692.88;1758105;82;21023;-83
2022/05/24 05:02:03;;;;;;;5.05;3.17;;;;;;;15.72;56.88;95696.10;1780988;80;20973;-83
2022/05/24 05:04:29;;;;;;;5.30;3.77;;;;;;;15.76;56.61;95701.16;1788869;80;21005;-83
2022/05/24 05:06:55;;;;;;;4.08;3.65;;;;;;;15.80;56.60;95702.31;1772044;80;20971;-83
2022/05/24 05:09:21;;;;;;;4.55;2.58;;;;;;;15.84;56.44;95700.02;1776362;80;20981;-83
2022/05/24 05:11:47;;;;;;;3.55;2.90;;;;;;;15.87;56.46;95704.80;1788661;80;21013;-83
2022/05/24 05:14:12;;;;;;;3.52;2.60;;;;;;;15.91;56.29;95708.02;1789211;80;21454;-83
2022/05/24 05:16:38;;;;;;;3.72;2.45;;;;;;;15.94;56.24;95716.44;1789524;80;21069;-83
2022/05/24 05:19:05;;;;;;;4.25;2.40;;;;;;;15.95;56.29;95722.79;1789360;80;21064;-83
2022/05/24 05:21:33;;;;;;;2.27;2.08;;;;;;;16.00;56.04;95719.47;1789257;80;21400;-83
2022/05/24 05:24:00;;;;;;;3.62;2.67;;;;;;;16.02;56.24;95718.20;1788921;80;21088;-83
2022/05/24 05:26:26;;;;;;;3.47;2.42;;;;;;;16.06;56.31;95726.39;1789739;80;21001;-83
2022/05/24 05:28:53;;;;;;;5.85;2.35;;;;;;;15.99;56.09;95710.81;1794083;80;21029;-84
2022/05/24 05:31:26;;;;;;;2.92;2.50;;;;;;;16.12;56.03;95715.80;1789663;80;20984;-83
2022/05/24 05:33:57;;;;;;;7.15;4.83;;;;;;;16.14;56.08;95728.15;1778794;80;21041;-84
2022/05/24 05:36:23;;;;;;;9.00;5.13;;;;;;;16.16;55.99;95733.16;1763053;80;20970;-83
2022/05/24 05:38:49;;;;;;;4.70;2.50;;;;;;;16.15;56.47;95734.98;1786165;80;20965;-83
2022/05/24 05:41:18;;;;;;;5.50;3.25;;;;;;;16.14;57.37;95737.32;1789257;80;21385;-83
2022/05/24 05:43:44;;;;;;;5.25;2.60;;;;;;;16.10;58.22;95738.80;1789258;80;21347;-83
2022/05/24 05:46:11;;;;;;;3.70;2.98;;;;;;;16.02;58.01;95733.92;1774760;80;20940;-83
2022/05/24 05:48:37;;;;;;;2.67;2.27;;;;;;;16.01;57.53;95739.40;1765881;80;20924;-83
2022/05/24 05:51:03;;;;;;;5.25;3.90;;;;;;;16.00;57.13;95741.74;1789168;80;21423;-83
2022/05/24 05:53:29;;;;;;;5.03;3.30;;;;;;;16.00;56.94;95742.53;1787640;80;21414;-83
2022/05/24 05:55:55;;;;;;;4.28;2.55;;;;;;;16.03;57.39;95749.93;1783633;79;20978;-83
2022/05/24 05:58:20;;;;;;;3.45;2.60;;;;;;;16.04;57.99;95745.48;1734450;81;20960;-83
2022/05/24 06:00:49;;;;;;;3.27;2.35;;;;;;;16.03;58.74;95749.13;1768736;80;20932;-83
2022/05/24 06:03:18;;;;;;;6.28;2.83;;;;;;;16.02;57.69;95754.89;1763857;80;20955;-82
2022/05/24 06:05:44;;;;;;;8.73;2.85;;;;;;;16.03;58.42;95759.10;1761489;80;20994;-82
2022/05/24 06:08:10;;;;;;;4.47;2.75;;;;;;;16.02;59.48;95765.88;1764056;80;21062;-83
2022/05/24 06:10:36;;;;;;;3.83;2.90;;;;;;;15.94;59.61;95771.46;1760628;80;21381;-83
2022/05/24 06:13:05;;;;;;;3.77;2.72;;;;;;;15.84;59.03;95770.75;1762464;80;21054;-83
2022/05/24 06:15:31;;;;;;;3.30;2.50;;;;;;;15.73;60.28;95775.47;1761675;80;21378;-83
2022/05/24 06:17:57;;;;;;;6.90;3.10;;;;;;;15.67;61.23;95785.56;1761223;80;20987;-83
2022/05/24 06:20:25;;;;;;;5.65;3.15;;;;;;;15.68;62.23;95795.02;1760056;80;20939;-82
2022/05/24 06:22:53;;;;;;;3.98;3.10;;;;;;;15.67;62.63;95786.87;1764659;80;20987;-85
2022/05/24 06:25:25;;;;;;;4.92;3.70;;;;;;;15.68;62.88;95792.39;1762354;80;21373;-84
2022/05/24 06:27:52;;;;;;;7.08;3.60;;;;;;;15.70;62.48;95797.68;1765646;80;20995;-83
2022/05/24 06:30:20;;;;;;;5.28;3.37;;;;;;;15.71;63.09;95787.48;1762789;80;21077;-84
2022/05/24 06:32:49;;;;;;;5.42;3.95;;;;;;;15.74;64.15;95794.09;1764506;80;21298;-82
2022/05/24 06:35:16;;;;;;;5.62;3.75;;;;;;;15.76;64.39;95799.89;1776111;80;20975;-83
2022/05/24 06:37:42;;;;;;;4.15;3.20;;;;;;;15.76;64.48;95799.38;1781106;80;20920;-82
2022/05/24 06:40:11;;;;;;;3.90;2.90;;;;;;;15.73;64.71;95802.97;1775073;80;20971;-82
2022/05/24 06:42:37;;;;;;;3.90;3.05;;;;;;;15.70;64.85;95808.67;1775389;80;20984;-83
2022/05/24 06:45:04;;;;;;;3.55;2.75;;;;;;;15.69;64.97;95807.08;1776273;80;20963;-82
2022/05/24 06:47:30;;;;;;;4.35;3.40;;;;;;;15.63;65.67;95804.07;1768148;80;22164;-82
2022/05/24 06:49:56;;;;;;;4.85;2.95;;;;;;;15.53;65.37;95805.38;1761641;80;21031;-82
2022/05/24 06:52:23;;;;;;;5.50;4.10;;;;;;;15.52;66.28;95809.03;1766772;80;21003;-82
2022/05/24 06:54:49;;;;;;;4.28;3.45;;;;;;;15.51;66.85;95804.02;1759483;80;22220;-83
2022/05/24 06:57:15;;;;;;;5.45;3.20;;;;;;;15.51;67.27;95808.74;1763241;80;21002;-81
2022/05/24 07:02:25;;;;;;;3.10;2.80;;;;;;;15.54;67.35;95809.59;1757815;80;20988;-82
2022/05/24 07:05:07;;;;;;;4.75;3.12;;;;;;;15.55;66.80;95813.02;1761004;80;21382;-81
2022/05/24 07:07:34;;;;;;;3.83;3.00;;;;;;;15.54;66.64;95809.59;1772000;80;20987;-82
2022/05/24 07:10:01;;;;;;;4.00;3.22;;;;;;;15.53;66.24;95808.00;1770986;80;20987;-81
2022/05/24 07:12:28;;;;;;;4.20;3.58;;;;;;;15.56;66.58;95805.44;1760519;80;20971;-82
2022/05/24 07:14:54;;;;;;;4.28;3.62;;;;;;;15.55;66.78;95796.79;1759614;80;20990;-81
2022/05/24 07:17:21;;;;;;;6.37;3.98;;;;;;;15.56;66.07;95802.31;1757736;82;21369;-82
2022/05/24 07:19:47;;;;;;;3.70;3.27;;;;;;;15.57;65.47;95803.10;1758186;80;21003;-81
2022/05/24 07:22:13;;;;;;;7.10;4.10;;;;;;;15.67;66.31;95796.03;1757775;80;21015;-82
2022/05/24 07:24:39;;;;;;;7.05;4.80;;;;;;;15.75;66.40;95795.68;1766101;80;21045;-82
2022/05/24 07:27:11;;;;;;;5.80;4.00;;;;;;;15.87;66.38;95793.35;1785573;80;20967;-82
2022/05/24 07:29:37;;;;;;;3.75;2.75;;;;;;;15.98;66.56;95793.06;1768801;80;21016;-83
2022/05/24 07:32:04;;;;;;;5.08;2.98;;;;;;;16.07;65.34;95792.98;1768620;80;21090;-82
2022/05/24 07:34:32;;;;;;;4.47;2.83;;;;;;;16.15;65.00;95790.53;1762018;80;20960;-83
2022/05/24 07:36:58;;;;;;;3.52;3.00;;;;;;;16.25;64.92;95791.24;1758487;80;20967;-82
2022/05/24 07:39:23;;;;;;;4.22;2.77;;;;;;;16.29;64.30;95786.64;1762726;80;20928;-82
2022/05/24 07:45:48;;;;;;;6.17;3.80;;;;;;;16.39;63.90;95776.84;1764918;80;21091;-82
2022/05/24 07:47:17;;;;;;;5.60;3.10;;;;;;;16.45;63.58;95774.62;1761561;80;22297;-81
2022/05/24 07:49:42;;;;;;;3.75;2.70;;;;;;;16.54;63.76;95776.34;1759581;80;21026;-82
2022/05/24 07:52:08;;;;;;;4.45;3.00;;;;;;;16.63;62.56;95778.37;1761142;80;21043;-81
2022/05/24 07:54:34;;;;;;;2.80;2.55;;;;;;;16.77;62.10;95782.87;1757891;80;21110;-82
2022/05/24 07:57:00;;;;;;;3.40;2.42;;;;;;;16.88;61.86;95787.25;1757351;80;20991;-81
2022/05/24 07:59:27;;;;;;;3.12;2.80;;;;;;;17.01;62.11;95783.02;1759391;80;21429;-82
2022/05/24 08:01:53;;;;;;;3.60;2.65;;;;;;;17.13;61.75;95785.59;1757328;80;21875;-82
2022/05/24 08:04:18;;;;;;;2.55;2.35;;;;;;;17.21;61.78;95776.52;1772166;80;20955;-82
2022/05/24 08:06:44;;;;;;;5.40;3.10;;;;;;;17.26;60.44;95777.42;1758266;80;20951;-82
2022/05/24 08:09:10;;;;;;;3.95;2.60;;;;;;;17.30;60.87;95775.10;1762631;80;21027;-82
2022/05/24 08:11:36;;;;;;;3.50;2.40;;;;;;;17.36;60.36;95776.25;1768048;80;21099;-82
2022/05/24 08:14:02;;;;;;;4.47;2.50;;;;;;;17.39;59.85;95779.70;1774910;80;21360;-82
2022/05/24 08:16:29;;;;;;;3.25;2.37;;;;;;;17.46;59.42;95778.77;1772139;80;21043;-82
2022/05/24 08:18:58;;;;;;;3.52;2.47;;;;;;;17.50;59.49;95775.41;1754495;80;21001;-82
2022/05/24 08:21:26;;;;;;;5.85;2.30;;;;;;;17.55;59.88;95777.31;1783927;80;20988;-83
2022/05/24 08:23:52;;;;;;;3.17;2.30;;;;;;;17.54;58.60;95773.09;1755723;80;21000;-83
2022/05/24 08:26:18;;;;;;;3.50;1.95;;;;;;;17.49;59.23;95775.66;1756356;80;21019;-82
2022/05/24 08:28:43;;;;;;;2.62;2.05;;;;;;;17.46;59.03;95784.02;1756167;80;20963;-82
2022/05/24 08:31:10;;;;;;;4.25;2.47;;;;;;;17.43;58.80;95786.61;1756132;80;20940;-82
2022/05/24 08:33:36;;;;;;;2.58;2.37;;;;;;;17.39;58.87;95786.27;1756318;80;20968;-82
2022/05/24 08:36:03;;;;;;;3.10;2.20;;;;;;;17.37;58.43;95784.40;1756267;80;20948;-83
2022/05/24 08:38:29;;;;;;;4.58;2.30;;;;;;;17.40;58.85;95786.55;1756320;80;20978;-82
2022/05/24 08:41:01;;;;;;;3.42;2.50;;;;;;;17.44;58.72;95793.45;1756049;80;20996;-82
2022/05/24 08:48:22;;;;;;;;;;;;;;;17.48;58.76;95795.08;1758524;80;21014;-82
2022/05/24 08:49:18;;;;;;;3.20;2.10;;;;;;;17.44;58.54;95806.59;1756106;80;21003;-82
2022/05/24 08:51:57;;;;;;;2.60;2.20;;;;;;;17.44;58.38;95801.84;1756307;80;20968;-82
2022/05/24 08:54:40;;;;;;;2.37;2.00;;;;;;;17.45;57.86;95801.61;1756771;80;21125;-83
2022/05/24 08:57:13;;;;;;;3.27;1.90;;;;;;;17.48;57.82;95801.64;1756284;80;21393;-81
2022/05/24 08:59:59;;;;;;;3.30;2.15;;;;;;;17.54;58.29;95798.05;1756641;80;20968;-82
2022/05/24 09:02:25;;;;;;;4.28;2.20;;;;;;;17.68;58.23;95789.64;1757476;80;21338;-83
2022/05/24 09:04:51;;;;;;;3.00;2.45;;;;;;;17.81;57.81;95797.71;1757009;81;21039;-83
2022/05/24 09:07:40;;;;;;;3.80;2.27;;;;;;;17.91;57.92;95799.70;1757048;80;21245;-82
2022/05/24 09:10:15;;;;;;;5.05;2.67;;;;;;;17.95;57.77;95808.17;1735327;82;22128;-82
2022/05/24 09:13:05;;;;;;;2.72;1.90;;;;;;;17.93;56.90;95808.14;1757002;81;21024;-82
2022/05/24 09:15:57;;;;;;;3.25;2.40;;;;;;;17.87;57.17;95808.56;1756648;81;21063;-82
2022/05/24 09:18:54;;;;;;;;;;;;;;;17.84;57.34;95804.31;1759387;81;21039;-82
2022/05/24 09:21:26;;;;;;;3.00;1.40;;;;;;;17.85;57.06;95805.38;1756911;80;20392;-81
2022/05/24 09:24:12;;;;;;;5.83;2.17;;;;;;;17.82;57.12;95803.24;1757640;80;21126;-82
2022/05/24 09:27:08;;;;;;;3.42;2.10;;;;;;;17.81;57.22;95805.59;1761317;80;21022;-82
2022/05/24 09:29:36;;;;;;;4.72;2.12;;;;;;;17.88;58.04;95815.41;1758530;82;20952;-82
2022/05/24 09:32:07;;;;;;;3.77;2.25;;;;;;;17.88;57.72;95810.16;1758597;82;21409;-82
2022/05/24 09:34:34;;;;;;;3.33;2.67;;;;;;;17.86;57.55;95812.75;1758708;80;21010;-83
2022/05/24 09:37:10;;;;;;;3.40;2.47;;;;;;;17.79;57.46;95810.30;1761332;80;21023;-82
2022/05/24 09:39:42;;;;;;;3.22;2.35;;;;;;;17.70;57.14;95815.67;1758581;81;21012;-83
2022/05/24 09:42:29;;;;;;;3.05;2.50;;;;;;;17.62;57.74;95820.00;1758329;81;21078;-82
2022/05/24 09:45:16;;;;;;;4.58;2.08;;;;;;;17.54;57.44;95816.44;1758936;80;21055;-82
2022/05/24 09:47:50;;;;;;;4.25;2.55;;;;;;;17.45;57.81;95823.14;1759124;80;21015;-83
2022/05/24 09:50:31;;;;;;;3.90;2.45;;;;;;;17.39;57.87;95823.03;1758547;80;21024;-83
2022/05/24 09:53:14;;;;;;;4.15;2.60;;;;;;;17.36;58.03;95824.83;1759031;80;21294;-82
2022/05/24 09:55:59;;;;;;;3.37;2.67;;;;;;;17.31;58.14;95826.06;1758479;80;21025;-82
2022/05/24 09:58:35;;;;;;;5.05;2.67;;;;;;;17.25;58.24;95825.70;1758302;80;21038;-82
2022/05/24 10:01:08;;;;;;;4.70;2.62;;;;;;;17.18;58.35;95828.98;1758103;80;20963;-82
2022/05/24 10:03:44;;;;;;;2.58;2.37;;;;;;;17.14;58.38;95821.31;1758569;80;21011;-82
2022/05/24 10:06:32;;;;;;;4.55;2.70;;;;;;;17.13;58.38;95824.97;1758490;80;21465;-82
2022/05/24 10:09:21;;;;;;;4.67;2.67;;;;;;;17.13;58.60;95822.34;1757916;80;20987;-82
2022/05/24 10:11:59;;;;;;;4.45;2.72;;;;;;;17.15;58.91;95823.41;1758236;80;21016;-82
2022/05/24 10:14:54;;;;;;;3.77;2.65;;;;;;;17.15;59.01;95816.34;1758423;80;20967;-82
2022/05/24 10:17:40;;;;;;;3.05;2.60;;;;;;;17.18;59.31;95817.17;1766384;80;20972;-82
2022/05/24 10:20:18;;;;;;;2.80;2.47;;;;;;;17.20;59.23;95822.18;1747595;80;20955;-82
2022/05/24 10:23:10;;;;;;;3.87;2.75;;;;;;;17.21;59.35;95819.84;1758453;80;21328;-82
2022/05/24 10:25:47;;;;;;;4.65;3.33;;;;;;;17.23;59.87;95816.45;1732960;81;21106;-82
2022/05/24 10:28:41;;;;;;;4.20;3.15;;;;;;;17.22;60.50;95822.73;1764620;80;21390;-80
2022/05/24 10:31:28;;;;;;;4.10;2.52;;;;;;;17.25;61.90;95823.08;1785987;80;20980;-81
2022/05/24 10:40:17;;;;;;;4.28;2.72;;;;;;;17.45;64.20;95832.33;1786110;80;21044;-81
2022/05/24 10:43:28;;;;;;;6.47;2.95;;;;;;;17.54;64.28;95836.14;1782800;80;21452;-81
2022/05/24 10:46:05;;;;;;;3.85;2.70;;;;;;;17.63;63.64;95839.98;1775617;80;20955;-81
2022/05/24 10:49:16;;;;;;;3.67;2.80;;;;;;;17.74;65.53;95835.20;1748527;80;20967;-81
2022/05/24 10:52:01;;;;;;;3.98;2.30;;;;;;;17.89;66.32;95834.60;1704964;83;21021;-81
2022/05/24 10:54:52;;;;;;;4.92;2.52;;;;;;;18.08;67.79;95836.47;1699955;83;21052;-81
2022/05/24 10:57:57;;;;;;;4.03;2.83;;;;;;;18.20;64.35;95829.26;1747686;81;21022;-81
2022/05/24 11:00:33;;;;;;;3.90;2.85;;;;;;;18.37;66.08;95834.47;1757510;80;21409;-82
2022/05/24 11:03:17;;;;;;;3.37;2.65;;;;;;;18.66;64.63;95837.76;1758432;80;21386;-82
2022/05/24 11:05:50;;;;;;;5.15;3.02;;;;;;;18.86;66.51;95828.77;1762935;80;21004;-83
2022/05/24 11:08:46;;;;;;;5.40;3.05;;;;;;;19.03;66.06;95829.48;1762605;80;20952;-82
2022/05/24 11:12:06;;;;;;;3.72;2.80;;;;;;;19.22;66.59;95831.27;1742415;80;21023;-82
2022/05/24 11:14:57;;;;;;;4.83;2.92;;;;;;;19.40;65.50;95830.91;1758756;80;20963;-82
2022/05/24 11:17:23;;;;;;;3.80;2.80;;;;;;;19.69;64.45;95820.90;1758683;80;20948;-82
2022/05/24 11:19:52;;;;;;;4.22;2.87;;;;;;;19.94;63.47;95822.90;1759239;80;21018;-82
2022/05/24 11:22:33;;;;;;;3.47;3.00;;;;;;;20.07;63.82;95819.03;1759870;80;21035;-83
2022/05/24 11:25:22;;;;;;;4.58;3.02;;;;;;;20.01;64.17;95810.80;1770854;80;21030;-82
2022/05/24 11:27:58;;;;;;;6.35;5.00;;;;;;;20.06;63.92;95818.23;1783421;80;21362;-82
2022/05/24 11:30:37;;;;;;;4.75;3.22;;;;;;;20.09;63.47;95816.92;1790457;80;20968;-82
2022/05/24 11:33:09;;;;;;;3.80;2.80;;;;;;;20.21;62.97;95815.42;1763370;80;21095;-82
2022/05/24 11:35:39;;;;;;;3.83;2.90;;;;;;;20.25;60.30;95818.60;1768275;80;20988;-82
2022/05/24 11:38:13;;;;;;;4.72;3.02;;;;;;;20.41;60.51;95818.67;1764261;80;21401;-82
2022/05/24 11:40:56;;;;;;;4.60;2.98;;;;;;;20.58;60.05;95810.07;1761840;80;20940;-82
2022/05/24 11:43:46;;;;;;;3.72;3.00;;;;;;;20.78;59.98;95811.45;1768279;80;20981;-82
2022/05/24 11:46:40;;;;;;;3.85;2.70;;;;;;;21.14;59.73;95810.20;1766597;80;21039;-82
2022/05/24 11:49:24;;;;;;;4.67;2.92;;;;;;;21.41;59.16;95806.84;1763802;80;20958;-82
2022/05/24 11:51:52;;;;;;;3.83;2.70;;;;;;;21.55;57.65;95806.59;1744643;80;20980;-81
2022/05/24 11:54:23;;;;;;;6.08;3.00;;;;;;;21.57;57.60;95807.11;1764480;80;21321;-82
2022/05/24 11:57:04;;;;;;;4.65;3.45;;;;;;;21.56;56.96;95808.17;1771265;80;21313;-82
2022/05/24 11:59:49;;;;;;;4.50;3.20;;;;;;;21.48;55.91;95812.68;1768727;80;21078;-82
2022/05/24 12:02:34;;;;;;;5.08;2.87;;;;;;;21.39;55.97;95808.17;1772524;80;21484;-82
2022/05/24 12:08:08;;;;;;;4.42;2.87;;;;;;;21.16;57.43;95811.56;1770339;80;21397;-82
2022/05/24 12:10:49;;;;;;;4.10;2.83;;;;;;;21.13;56.31;95816.55;1763597;80;20948;-82
2022/05/24 12:13:20;;;;;;;4.40;2.90;;;;;;;21.17;55.78;95811.03;1773699;80;21031;-82
2022/05/24 12:15:49;;;;;;;5.20;2.85;;;;;;;21.23;57.21;95816.58;1769682;80;21622;-81
2022/05/24 12:18:18;;;;;;;3.77;2.90;;;;;;;21.25;55.66;95814.49;1777646;80;21036;-81
2022/05/24 12:20:49;;;;;;;4.03;3.02;;;;;;;21.21;55.37;95805.48;1760764;80;21062;-82
2022/05/24 12:23:32;;;;;;;3.98;3.00;;;;;;;21.19;56.53;95802.31;1769518;80;21414;-82
2022/05/24 12:26:12;;;;;;;5.72;3.17;;;;;;;21.20;56.70;95803.90;1763397;80;21344;-82